Time;durP1;ratioP1;P1;durP2;ratioP2;P2;SDS_P1;SDS_P2;PMS_P1;PMS_P2;Temp;Humidity;BMP_temperature;BMP_pressure;BME280_temperature;BME280_humidity;BME280_pressure;Samples;Min_cycle;Max_cycle;Signal;HPM_P1;HPM_P2
2023/03/15 00:01:13;;;;;;;0.20;0.20;;;;;;;;;;5015790;28;20269;-80
2023/03/15 00:03:40;;;;;;;0.20;0.20;;;;;;;;;;5025592;28;20201;-79
2023/03/15 00:06:06;;;;;;;0.20;0.20;;;;;;;;;;5015532;28;20311;-80
2023/03/15 00:08:33;;;;;;;0.20;0.20;;;;;;;;;;5025460;28;20395;-79
2023/03/15 00:11:00;;;;;;;0.20;0.20;;;;;;;;;;5015693;28;20529;-80
2023/03/15 00:13:28;;;;;;;0.20;0.20;;;;;;;;;;5025324;28;20239;-80
2023/03/15 00:15:56;;;;;;;0.20;0.20;;;;;;;;;;5015451;28;20276;-80
2023/03/15 00:18:23;;;;;;;0.20;0.20;;;;;;;;;;5025177;28;20215;-79
2023/03/15 00:20:49;;;;;;;0.20;0.20;;;;;;;;;;5015568;28;20247;-80
2023/03/15 00:23:16;;;;;;;0.20;0.20;;;;;;;;;;5025015;28;20228;-80
2023/03/15 00:25:44;;;;;;;0.20;0.20;;;;;;;;;;5015287;28;20300;-80
2023/03/15 00:28:10;;;;;;;0.20;0.20;;;;;;;;;;5025161;28;20411;-80
2023/03/15 00:30:38;;;;;;;0.20;0.20;;;;;;;;;;5015577;28;20266;-80
2023/03/15 00:33:05;;;;;;;0.20;0.20;;;;;;;;;;5025187;28;20207;-80
2023/03/15 00:35:32;;;;;;;0.20;0.20;;;;;;;;;;5015853;28;20258;-80
2023/03/15 00:37:59;;;;;;;0.20;0.20;;;;;;;;;;5025200;28;20214;-79
2023/03/15 00:40:25;;;;;;;0.20;0.20;;;;;;;;;;5015633;28;20200;-80
2023/03/15 00:42:52;;;;;;;0.20;0.20;;;;;;;;;;5025022;28;20232;-80
2023/03/15 00:45:18;;;;;;;0.20;0.20;;;;;;;;;;5015803;28;20199;-80
2023/03/15 00:47:48;;;;;;;0.20;0.20;;;;;;;;;;5024300;28;20250;-79
2023/03/15 00:50:14;;;;;;;0.20;0.20;;;;;;;;;;5015628;28;20247;-80
2023/03/15 00:52:41;;;;;;;0.20;0.20;;;;;;;;;;5025265;28;20231;-80
2023/03/15 00:55:12;;;;;;;0.20;0.20;;;;;;;;;;5020300;28;20216;-80
2023/03/15 00:57:38;;;;;;;0.20;0.20;;;;;;;;;;5025411;28;20223;-79
2023/03/15 01:00:05;;;;;;;0.20;0.20;;;;;;;;;;5026379;28;20411;-79
2023/03/15 01:02:32;;;;;;;0.20;0.20;;;;;;;;;;4998814;28;20208;-80
2023/03/15 01:05:00;;;;;;;0.20;0.20;;;;;;;;;;5025812;28;20235;-80
2023/03/15 01:07:26;;;;;;;0.20;0.20;;;;;;;;;;5014841;28;20240;-79
2023/03/15 01:09:53;;;;;;;0.20;0.20;;;;;;;;;;5025933;28;20397;-80
2023/03/15 01:12:19;;;;;;;0.20;0.20;;;;;;;;;;5015118;28;20270;-80
2023/03/15 01:14:46;;;;;;;0.20;0.20;;;;;;;;;;5025665;28;20214;-80
2023/03/15 01:17:12;;;;;;;0.20;0.20;;;;;;;;;;5014136;28;20247;-79
2023/03/15 01:19:38;;;;;;;0.10;0.10;;;;;;;;;;5025850;28;20208;-79
2023/03/15 01:22:06;;;;;;;0.20;0.20;;;;;;;;;;5015408;28;20513;-78
2023/03/15 01:24:33;;;;;;;0.20;0.20;;;;;;;;;;5026190;28;20208;-79
2023/03/15 01:26:59;;;;;;;0.20;0.20;;;;;;;;;;5014934;28;20315;-78
2023/03/15 01:29:26;;;;;;;0.20;0.20;;;;;;;;;;5025793;28;20264;-77
2023/03/15 01:31:52;;;;;;;0.20;0.20;;;;;;;;;;5013756;28;20243;-78
2023/03/15 01:34:20;;;;;;;0.20;0.20;;;;;;;;;;5024192;28;20233;-78
2023/03/15 01:36:49;;;;;;;0.20;0.20;;;;;;;;;;5013922;28;20438;-78
2023/03/15 01:39:17;;;;;;;0.20;0.20;;;;;;;;;;5024420;28;20243;-79
2023/03/15 01:41:43;;;;;;;0.20;0.20;;;;;;;;;;5013904;28;20271;-78
2023/03/15 01:44:12;;;;;;;0.20;0.20;;;;;;;;;;5025003;28;20215;-79
2023/03/15 01:46:38;;;;;;;0.20;0.20;;;;;;;;;;5014752;28;20445;-78
2023/03/15 01:49:07;;;;;;;0.20;0.20;;;;;;;;;;5025590;28;20209;-78
2023/03/15 01:51:36;;;;;;;0.20;0.20;;;;;;;;;;5015031;28;20244;-78
2023/03/15 01:54:05;;;;;;;0.20;0.20;;;;;;;;;;5025086;28;20247;-78
2023/03/15 01:56:34;;;;;;;0.20;0.20;;;;;;;;;;5014609;28;20263;-78
2023/03/15 01:59:01;;;;;;;0.20;0.20;;;;;;;;;;5025006;28;20251;-78
2023/03/15 02:01:28;;;;;;;0.20;0.20;;;;;;;;;;5014864;28;20251;-78
2023/03/15 02:03:57;;;;;;;0.20;0.20;;;;;;;;;;5024492;28;20199;-79
2023/03/15 02:06:24;;;;;;;0.20;0.20;;;;;;;;;;5014717;28;20499;-78
2023/03/15 02:08:51;;;;;;;0.20;0.20;;;;;;;;;;5024840;28;20423;-79
2023/03/15 02:11:19;;;;;;;0.20;0.20;;;;;;;;;;5013908;28;20251;-79
2023/03/15 02:13:47;;;;;;;0.20;0.20;;;;;;;;;;5023978;28;20207;-78
2023/03/15 02:16:14;;;;;;;0.20;0.20;;;;;;;;;;5013766;28;20263;-78
2023/03/15 02:18:40;;;;;;;0.20;0.20;;;;;;;;;;5023542;28;20208;-78
2023/03/15 02:21:10;;;;;;;0.20;0.20;;;;;;;;;;5013397;28;20319;-78
2023/03/15 02:23:36;;;;;;;0.20;0.20;;;;;;;;;;5023274;28;20215;-78
2023/03/15 02:26:08;;;;;;;0.20;0.20;;;;;;;;;;5013573;28;20502;-79
2023/03/15 02:28:36;;;;;;;0.20;0.20;;;;;;;;;;5023377;28;20196;-78
2023/03/15 02:31:03;;;;;;;0.20;0.20;;;;;;;;;;5013276;28;20260;-78
2023/03/15 02:33:30;;;;;;;0.20;0.20;;;;;;;;;;5022948;28;20209;-79
2023/03/15 02:36:06;;;;;;;0.20;0.20;;;;;;;;;;5013145;28;20247;-78
2023/03/15 02:38:32;;;;;;;0.20;0.20;;;;;;;;;;5022949;28;20271;-79
2023/03/15 02:40:59;;;;;;;0.20;0.20;;;;;;;;;;5014071;28;20242;-79
2023/03/15 02:43:28;;;;;;;0.20;0.20;;;;;;;;;;5023478;28;20208;-79
2023/03/15 02:45:56;;;;;;;0.20;0.20;;;;;;;;;;5013332;28;20244;-78
2023/03/15 02:48:23;;;;;;;0.20;0.20;;;;;;;;;;5023577;28;20399;-78
2023/03/15 02:50:49;;;;;;;0.20;0.20;;;;;;;;;;5013429;28;20277;-78
2023/03/15 02:53:16;;;;;;;0.20;0.20;;;;;;;;;;5023339;28;20246;-78
2023/03/15 02:55:42;;;;;;;0.20;0.20;;;;;;;;;;5013550;28;20243;-78
2023/03/15 02:58:08;;;;;;;0.20;0.20;;;;;;;;;;5024381;28;20234;-79
2023/03/15 03:00:35;;;;;;;0.20;0.20;;;;;;;;;;5014511;28;20319;-79
2023/03/15 03:03:03;;;;;;;0.20;0.20;;;;;;;;;;5024161;28;20401;-80
2023/03/15 03:05:29;;;;;;;0.20;0.20;;;;;;;;;;5014951;28;20258;-78
2023/03/15 03:07:55;;;;;;;0.20;0.20;;;;;;;;;;5023905;28;20282;-79
2023/03/15 03:10:22;;;;;;;0.20;0.20;;;;;;;;;;5013469;28;20207;-77
2023/03/15 03:12:52;;;;;;;0.27;0.27;;;;;;;;;;5023081;28;20268;-79
2023/03/15 03:15:18;;;;;;;0.20;0.20;;;;;;;;;;5015502;28;20208;-78
2023/03/15 03:17:45;;;;;;;0.20;0.20;;;;;;;;;;5027643;28;20224;-78
2023/03/15 03:20:14;;;;;;;0.20;0.20;;;;;;;;;;5018587;28;20424;-78
2023/03/15 03:22:43;;;;;;;0.20;0.20;;;;;;;;;;5027256;28;20192;-79
2023/03/15 03:25:10;;;;;;;0.20;0.20;;;;;;;;;;5018222;28;20198;-78
2023/03/15 03:27:37;;;;;;;0.20;0.20;;;;;;;;;;5025890;28;20218;-79
2023/03/15 03:30:03;;;;;;;0.20;0.20;;;;;;;;;;5027372;28;20200;-79
2023/03/15 03:32:30;;;;;;;0.20;0.20;;;;;;;;;;5016382;28;20242;-79
2023/03/15 03:34:57;;;;;;;0.20;0.20;;;;;;;;;;5027083;28;20210;-79
2023/03/15 03:37:25;;;;;;;0.20;0.20;;;;;;;;;;5016803;28;20270;-79
2023/03/15 03:39:51;;;;;;;0.20;0.20;;;;;;;;;;5028001;28;20211;-78
2023/03/15 03:42:18;;;;;;;0.20;0.20;;;;;;;;;;5016206;28;20263;-78
2023/03/15 03:44:44;;;;;;;0.20;0.20;;;;;;;;;;5027128;28;20208;-78
2023/03/15 03:47:11;;;;;;;0.20;0.20;;;;;;;;;;5016323;28;20294;-78
2023/03/15 03:49:37;;;;;;;0.20;0.20;;;;;;;;;;5027141;28;20245;-79
2023/03/15 03:52:03;;;;;;;0.20;0.20;;;;;;;;;;5016159;28;20262;-77
2023/03/15 03:54:32;;;;;;;0.20;0.20;;;;;;;;;;5026293;28;20219;-80
2023/03/15 03:56:58;;;;;;;0.20;0.20;;;;;;;;;;5015249;28;20470;-79
2023/03/15 03:59:24;;;;;;;0.20;0.20;;;;;;;;;;5026225;28;20520;-79
2023/03/15 04:01:51;;;;;;;0.20;0.20;;;;;;;;;;5015201;28;20247;-79
2023/03/15 04:04:17;;;;;;;0.20;0.20;;;;;;;;;;5026219;28;20466;-79
2023/03/15 04:06:44;;;;;;;0.20;0.20;;;;;;;;;;5015275;28;20243;-79
2023/03/15 04:09:11;;;;;;;0.20;0.20;;;;;;;;;;5026087;28;20455;-79
2023/03/15 04:11:41;;;;;;;0.20;0.20;;;;;;;;;;5015237;28;20282;-79
2023/03/15 04:14:07;;;;;;;0.20;0.20;;;;;;;;;;5025726;28;20391;-79
2023/03/15 04:16:34;;;;;;;0.20;0.20;;;;;;;;;;5015305;28;20486;-79
2023/03/15 04:19:00;;;;;;;0.20;0.20;;;;;;;;;;5025810;28;20216;-79
2023/03/15 04:21:30;;;;;;;0.20;0.20;;;;;;;;;;5015202;28;20319;-78
2023/03/15 04:23:57;;;;;;;0.20;0.20;;;;;;;;;;5025648;28;20214;-78
2023/03/15 04:26:25;;;;;;;0.20;0.20;;;;;;;;;;5014481;28;20611;-78
2023/03/15 04:28:53;;;;;;;0.20;0.20;;;;;;;;;;5025661;28;20231;-79
2023/03/15 04:31:19;;;;;;;0.20;0.20;;;;;;;;;;5015741;28;20266;-79
2023/03/15 04:33:45;;;;;;;0.20;0.20;;;;;;;;;;5025515;28;20206;-78
2023/03/15 04:36:17;;;;;;;0.20;0.20;;;;;;;;;;5015437;28;20298;-79
2023/03/15 04:38:45;;;;;;;0.20;0.20;;;;;;;;;;5025658;28;20207;-79
2023/03/15 04:41:11;;;;;;;0.20;0.20;;;;;;;;;;5015216;28;20243;-78
2023/03/15 04:43:38;;;;;;;0.20;0.20;;;;;;;;;;5025527;28;20533;-78
2023/03/15 04:46:06;;;;;;;0.20;0.20;;;;;;;;;;5015677;28;20269;-79
2023/03/15 04:48:32;;;;;;;0.20;0.20;;;;;;;;;;5025442;28;20294;-79
2023/03/15 04:50:59;;;;;;;0.20;0.20;;;;;;;;;;5015517;28;20243;-78
2023/03/15 04:53:26;;;;;;;0.20;0.20;;;;;;;;;;5025409;28;20209;-79
2023/03/15 04:55:52;;;;;;;0.20;0.20;;;;;;;;;;5015792;28;20290;-78
2023/03/15 04:58:19;;;;;;;0.20;0.20;;;;;;;;;;5025347;28;20434;-79
2023/03/15 05:00:45;;;;;;;0.20;0.20;;;;;;;;;;5015568;28;20247;-79
2023/03/15 05:03:13;;;;;;;0.20;0.20;;;;;;;;;;5025609;28;20237;-79
2023/03/15 05:05:40;;;;;;;0.20;0.20;;;;;;;;;;5016124;28;20249;-78
2023/03/15 05:08:06;;;;;;;0.20;0.20;;;;;;;;;;5025223;28;20234;-79
2023/03/15 05:10:33;;;;;;;0.20;0.20;;;;;;;;;;5016047;28;20309;-79
2023/03/15 05:12:59;;;;;;;0.20;0.20;;;;;;;;;;5024255;28;20198;-79
2023/03/15 05:15:26;;;;;;;0.20;0.20;;;;;;;;;;5015552;28;20207;-78
2023/03/15 05:17:53;;;;;;;0.20;0.20;;;;;;;;;;5025082;28;20192;-78
2023/03/15 05:20:22;;;;;;;0.20;0.20;;;;;;;;;;5015639;28;20207;-79
2023/03/15 05:22:48;;;;;;;0.20;0.20;;;;;;;;;;5024296;28;20267;-78
2023/03/15 05:25:15;;;;;;;0.30;0.30;;;;;;;;;;5014886;28;20213;-78
2023/03/15 05:27:41;;;;;;;0.20;0.20;;;;;;;;;;5024583;28;20215;-78
2023/03/15 05:30:08;;;;;;;0.20;0.20;;;;;;;;;;5019375;28;20216;-79
2023/03/15 05:32:38;;;;;;;0.20;0.20;;;;;;;;;;5024794;28;20427;-79
2023/03/15 05:35:05;;;;;;;0.20;0.20;;;;;;;;;;5025792;28;20221;-79
2023/03/15 05:37:34;;;;;;;0.20;0.20;;;;;;;;;;5013968;28;20243;-78
2023/03/15 05:40:01;;;;;;;0.23;0.23;;;;;;;;;;5025363;28;20257;-79
2023/03/15 05:42:28;;;;;;;0.20;0.20;;;;;;;;;;5013399;28;20243;-79
2023/03/15 05:44:54;;;;;;;0.20;0.20;;;;;;;;;;5024925;28;20451;-78
2023/03/15 05:47:21;;;;;;;0.20;0.20;;;;;;;;;;5014094;28;20442;-79
2023/03/15 05:49:48;;;;;;;0.20;0.20;;;;;;;;;;5024698;28;20206;-78
2023/03/15 05:52:15;;;;;;;0.20;0.20;;;;;;;;;;5013638;28;20693;-79
2023/03/15 05:54:43;;;;;;;0.20;0.20;;;;;;;;;;5024373;28;20213;-79
2023/03/15 05:57:10;;;;;;;0.20;0.20;;;;;;;;;;5013437;28;20266;-78
2023/03/15 05:59:36;;;;;;;0.20;0.20;;;;;;;;;;5024045;28;20205;-78
2023/03/15 06:02:03;;;;;;;0.20;0.20;;;;;;;;;;5013203;28;20258;-79
2023/03/15 06:04:29;;;;;;;0.20;0.20;;;;;;;;;;5024099;28;20208;-79
2023/03/15 06:06:56;;;;;;;0.20;0.20;;;;;;;;;;5013343;28;20242;-79
2023/03/15 06:09:22;;;;;;;0.20;0.20;;;;;;;;;;5024110;28;20465;-78
2023/03/15 06:11:51;;;;;;;0.20;0.20;;;;;;;;;;5013706;28;20243;-78
2023/03/15 06:14:17;;;;;;;0.20;0.20;;;;;;;;;;5024653;28;20212;-79
2023/03/15 06:16:43;;;;;;;0.20;0.20;;;;;;;;;;5013995;28;20267;-79
2023/03/15 06:19:10;;;;;;;0.23;0.23;;;;;;;;;;5024401;28;20390;-79
2023/03/15 06:21:36;;;;;;;0.20;0.20;;;;;;;;;;5013882;28;20301;-79
2023/03/15 06:24:03;;;;;;;0.20;0.20;;;;;;;;;;5024287;28;20213;-79
2023/03/15 06:26:29;;;;;;;0.20;0.20;;;;;;;;;;5014205;28;20308;-79
2023/03/15 06:28:57;;;;;;;0.20;0.20;;;;;;;;;;5023491;28;20298;-78
2023/03/15 06:31:24;;;;;;;0.20;0.20;;;;;;;;;;5013243;28;20289;-79
2023/03/15 06:33:50;;;;;;;0.20;0.20;;;;;;;;;;5023395;28;20200;-79
2023/03/15 06:36:16;;;;;;;0.20;0.20;;;;;;;;;;5013256;28;20631;-78
2023/03/15 06:38:43;;;;;;;0.20;0.20;;;;;;;;;;5024188;28;20232;-78
2023/03/15 06:41:11;;;;;;;0.20;0.20;;;;;;;;;;5014478;28;20247;-79
2023/03/15 06:43:37;;;;;;;0.20;0.20;;;;;;;;;;5024330;28;20245;-78
2023/03/15 06:46:05;;;;;;;0.20;0.20;;;;;;;;;;5014527;28;20258;-78
2023/03/15 06:48:32;;;;;;;0.20;0.20;;;;;;;;;;5024212;28;20230;-78
2023/03/15 06:50:58;;;;;;;0.20;0.20;;;;;;;;;;5018528;28;20313;-78
2023/03/15 06:53:24;;;;;;;0.20;0.20;;;;;;;;;;5027682;28;20219;-78
2023/03/15 06:55:51;;;;;;;0.20;0.20;;;;;;;;;;5017584;28;20497;-78
2023/03/15 06:58:18;;;;;;;0.20;0.20;;;;;;;;;;5027125;28;20207;-78
2023/03/15 07:00:44;;;;;;;0.20;0.20;;;;;;;;;;5017034;28;20259;-79
2023/03/15 07:03:12;;;;;;;0.20;0.20;;;;;;;;;;5026624;28;20219;-79
2023/03/15 07:05:38;;;;;;;0.20;0.20;;;;;;;;;;5017251;28;20266;-78
2023/03/15 07:08:05;;;;;;;0.20;0.20;;;;;;;;;;5026254;28;20246;-80
2023/03/15 07:10:31;;;;;;;0.20;0.20;;;;;;;;;;5017382;28;20559;-78
2023/03/15 07:12:58;;;;;;;0.20;0.20;;;;;;;;;;5026489;28;20196;-80
2023/03/15 07:15:24;;;;;;;0.20;0.20;;;;;;;;;;5017355;28;20475;-79
2023/03/15 07:17:50;;;;;;;0.20;0.20;;;;;;;;;;5026356;28;20191;-79
2023/03/15 07:20:18;;;;;;;0.20;0.20;;;;;;;;;;5017163;28;20207;-80
2023/03/15 07:22:45;;;;;;;0.20;0.20;;;;;;;;;;5026467;28;20196;-78
2023/03/15 07:25:11;;;;;;;0.20;0.20;;;;;;;;;;5017255;28;20208;-79
2023/03/15 07:27:38;;;;;;;0.20;0.20;;;;;;;;;;5026020;28;20216;-79
2023/03/15 07:30:06;;;;;;;0.20;0.20;;;;;;;;;;5027153;28;20227;-79
2023/03/15 07:32:32;;;;;;;0.20;0.20;;;;;;;;;;4999570;28;20239;-80
2023/03/15 07:34:59;;;;;;;0.20;0.20;;;;;;;;;;5026974;28;20412;-79
2023/03/15 07:37:28;;;;;;;0.20;0.20;;;;;;;;;;5016644;28;20242;-79
2023/03/15 07:39:54;;;;;;;0.20;0.20;;;;;;;;;;5027620;28;20266;-80
2023/03/15 07:42:20;;;;;;;0.20;0.20;;;;;;;;;;5016644;28;20305;-77
2023/03/15 07:44:47;;;;;;;0.20;0.20;;;;;;;;;;5027543;28;20198;-78
2023/03/15 07:47:13;;;;;;;0.20;0.20;;;;;;;;;;5016482;28;20319;-77
2023/03/15 07:49:40;;;;;;;0.90;0.90;;;;;;;;;;5027031;28;20254;-77
2023/03/15 07:52:06;;;;;;;0.20;0.20;;;;;;;;;;5016416;28;20306;-78
2023/03/15 07:54:34;;;;;;;0.20;0.20;;;;;;;;;;5026533;28;20574;-78
2023/03/15 07:57:00;;;;;;;0.20;0.20;;;;;;;;;;5015612;28;20449;-80
2023/03/15 07:59:27;;;;;;;0.20;0.20;;;;;;;;;;5026431;28;20212;-77
2023/03/15 08:01:53;;;;;;;0.20;0.20;;;;;;;;;;5014967;28;20310;-80
2023/03/15 08:04:20;;;;;;;3.07;2.97;;;;;;;;;;5026410;28;20538;-79
2023/03/15 08:06:46;;;;;;;0.20;0.20;;;;;;;;;;5015571;28;20508;-77
2023/03/15 08:09:12;;;;;;;0.20;0.20;;;;;;;;;;5026185;28;20258;-80
2023/03/15 08:11:40;;;;;;;0.20;0.20;;;;;;;;;;5015688;28;20266;-80
2023/03/15 08:14:06;;;;;;;0.20;0.20;;;;;;;;;;5026236;28;20237;-80
2023/03/15 08:16:33;;;;;;;0.20;0.20;;;;;;;;;;5015229;28;20251;-79
2023/03/15 08:19:15;;;;;;;0.20;0.20;;;;;;;;;;5029741;28;20242;-80
2023/03/15 08:21:44;;;;;;;0.20;0.20;;;;;;;;;;5017379;28;20251;-81
2023/03/15 08:24:10;;;;;;;0.20;0.20;;;;;;;;;;5025443;28;20212;-81
2023/03/15 08:26:37;;;;;;;0.20;0.20;;;;;;;;;;5014947;28;20310;-81
2023/03/15 08:29:04;;;;;;;0.20;0.20;;;;;;;;;;5025535;28;20426;-81
2023/03/15 08:31:31;;;;;;;0.20;0.20;;;;;;;;;;5015008;28;20580;-81
2023/03/15 08:33:57;;;;;;;0.20;0.20;;;;;;;;;;5026642;28;20211;-81
2023/03/15 08:36:24;;;;;;;0.20;0.20;;;;;;;;;;5016024;28;20513;-81
2023/03/15 08:38:50;;;;;;;0.20;0.20;;;;;;;;;;5025227;28;20503;-81
2023/03/15 08:41:17;;;;;;;0.20;0.20;;;;;;;;;;5015060;28;20283;-81
2023/03/15 08:43:43;;;;;;;0.20;0.20;;;;;;;;;;5025383;28;20401;-81
2023/03/15 08:46:11;;;;;;;0.20;0.20;;;;;;;;;;5014978;28;20244;-80
2023/03/15 08:48:38;;;;;;;0.20;0.20;;;;;;;;;;5024710;28;20235;-81
2023/03/15 08:51:04;;;;;;;0.20;0.20;;;;;;;;;;5014872;28;20416;-81
2023/03/15 08:53:31;;;;;;;0.20;0.20;;;;;;;;;;5024861;28;20204;-81
2023/03/15 08:55:58;;;;;;;0.20;0.20;;;;;;;;;;5014612;28;20546;-82
2023/03/15 08:58:24;;;;;;;0.20;0.20;;;;;;;;;;5024783;28;20211;-80
2023/03/15 09:00:51;;;;;;;0.20;0.20;;;;;;;;;;5015093;28;20252;-80
2023/03/15 09:03:19;;;;;;;0.20;0.20;;;;;;;;;;5024636;28;20252;-77
2023/03/15 09:05:45;;;;;;;0.20;0.20;;;;;;;;;;5014813;28;20263;-79
2023/03/15 09:08:12;;;;;;;0.20;0.20;;;;;;;;;;5024377;28;20208;-79
2023/03/15 09:10:39;;;;;;;0.10;0.10;;;;;;;;;;5014846;28;20458;-80
2023/03/15 09:13:05;;;;;;;0.33;0.33;;;;;;;;;;5024175;28;20271;-79
2023/03/15 09:15:32;;;;;;;0.23;0.23;;;;;;;;;;5014930;28;20298;-80
2023/03/15 09:17:58;;;;;;;0.20;0.20;;;;;;;;;;5024268;28;20228;-80
2023/03/15 09:20:27;;;;;;;0.40;0.40;;;;;;;;;;5016072;28;20463;-79
2023/03/15 09:22:54;;;;;;;0.20;0.20;;;;;;;;;;5024930;28;20219;-79
2023/03/15 09:25:21;;;;;;;0.20;0.20;;;;;;;;;;5015569;28;20204;-79
2023/03/15 09:27:47;;;;;;;0.20;0.20;;;;;;;;;;5024885;28;20232;-80
2023/03/15 09:30:14;;;;;;;0.20;0.20;;;;;;;;;;5014381;28;20240;-80
2023/03/15 09:32:42;;;;;;;0.20;0.20;;;;;;;;;;5023676;28;20205;-79
2023/03/15 09:35:10;;;;;;;0.27;0.27;;;;;;;;;;5018454;28;20205;-79
2023/03/15 09:37:37;;;;;;;0.20;0.20;;;;;;;;;;5023634;28;20217;-80
2023/03/15 09:40:06;;;;;;;0.20;0.20;;;;;;;;;;5024323;28;20212;-80
2023/03/15 09:42:37;;;;;;;0.10;0.10;;;;;;;;;;4996995;28;20227;-80
2023/03/15 09:45:07;;;;;;;0.20;0.20;;;;;;;;;;5024078;28;20202;-80
2023/03/15 09:47:37;;;;;;;0.10;0.10;;;;;;;;;;4997039;28;20212;-79
2023/03/15 09:50:06;;;;;;;0.20;0.20;;;;;;;;;;5024351;28;20228;-79
2023/03/15 09:52:42;;;;;;;0.37;0.37;;;;;;;;;;4996871;28;20377;-80
2023/03/15 09:55:13;;;;;;;0.10;0.10;;;;;;;;;;5014102;28;20396;-79
2023/03/15 09:57:42;;;;;;;0.20;0.20;;;;;;;;;;5023272;28;20205;-80
2023/03/15 10:00:13;;;;;;;0.20;0.20;;;;;;;;;;5016032;28;20455;-79
2023/03/15 10:02:42;;;;;;;0.27;0.27;;;;;;;;;;5022990;28;20421;-79
2023/03/15 10:05:12;;;;;;;0.20;0.20;;;;;;;;;;5014136;28;20232;-80
2023/03/15 10:07:38;;;;;;;0.20;0.20;;;;;;;;;;5023004;28;20247;-79
2023/03/15 10:10:08;;;;;;;0.10;0.10;;;;;;;;;;5023919;28;20221;-79
2023/03/15 10:12:40;;;;;;;2.70;2.47;;;;;;;;;;4996678;28;20206;-80
2023/03/15 10:15:22;;;;;;;0.20;0.20;;;;;;;;;;5019208;28;20283;-79
2023/03/15 10:17:52;;;;;;;0.10;0.10;;;;;;;;;;5022713;28;20213;-79
2023/03/15 10:20:21;;;;;;;0.10;0.10;;;;;;;;;;5014191;28;20358;-80
2023/03/15 10:22:54;;;;;;;0.10;0.10;;;;;;;;;;5023238;28;20204;-79
2023/03/15 10:25:24;;;;;;;1.20;1.03;;;;;;;;;;5013382;28;20221;-78
2023/03/15 10:27:55;;;;;;;0.20;0.20;;;;;;;;;;5022934;28;20205;-79
2023/03/15 10:30:23;;;;;;;0.20;0.20;;;;;;;;;;5014157;28;20263;-78
2023/03/15 10:32:52;;;;;;;0.20;0.20;;;;;;;;;;5023380;28;20312;-80
2023/03/15 10:35:20;;;;;;;0.30;0.30;;;;;;;;;;5014932;28;20471;-79
2023/03/15 10:37:46;;;;;;;0.27;0.27;;;;;;;;;;5023740;28;20198;-79
2023/03/15 10:40:15;;;;;;;0.10;0.10;;;;;;;;;;5014250;28;20210;-79
2023/03/15 10:42:42;;;;;;;0.10;0.10;;;;;;;;;;5023770;28;20268;-79
2023/03/15 10:45:14;;;;;;;0.50;0.50;;;;;;;;;;5023519;28;20212;-79
2023/03/15 10:47:41;;;;;;;0.10;0.10;;;;;;;;;;4995956;28;20213;-79
2023/03/15 10:50:09;;;;;;;0.30;0.30;;;;;;;;;;5018417;28;20249;-79
2023/03/15 10:52:37;;;;;;;0.20;0.20;;;;;;;;;;5022219;28;20231;-80
2023/03/15 10:55:05;;;;;;;0.10;0.10;;;;;;;;;;5023375;28;20231;-79
2023/03/15 10:57:34;;;;;;;0.20;0.20;;;;;;;;;;5012447;28;20286;-79
2023/03/15 11:00:05;;;;;;;0.10;0.10;;;;;;;;;;5023153;28;20399;-79
2023/03/15 11:02:33;;;;;;;0.10;0.10;;;;;;;;;;5012274;28;20245;-79
2023/03/15 11:05:00;;;;;;;0.10;0.10;;;;;;;;;;5023619;28;20229;-80
2023/03/15 11:07:27;;;;;;;0.10;0.10;;;;;;;;;;5012472;28;20239;-80
2023/03/15 11:09:54;;;;;;;0.10;0.10;;;;;;;;;;5023546;28;20277;-80
2023/03/15 11:12:23;;;;;;;0.20;0.20;;;;;;;;;;5012290;28;20247;-79
2023/03/15 11:14:50;;;;;;;2.63;2.53;;;;;;;;;;5023074;28;20212;-79
2023/03/15 11:17:17;;;;;;;0.20;0.20;;;;;;;;;;5012157;28;20451;-80
2023/03/15 11:19:49;;;;;;;0.10;0.10;;;;;;;;;;5023158;28;20214;-80
2023/03/15 11:22:15;;;;;;;0.10;0.10;;;;;;;;;;5012062;28;20255;-79
2023/03/15 11:24:41;;;;;;;0.10;0.10;;;;;;;;;;5022980;28;20216;-80
2023/03/15 11:27:11;;;;;;;0.20;0.20;;;;;;;;;;5012144;28;20488;-78
2023/03/15 11:29:38;;;;;;;0.10;0.10;;;;;;;;;;5022974;28;20279;-79
2023/03/15 11:32:11;;;;;;;0.20;0.20;;;;;;;;;;5012153;28;20238;-78
2023/03/15 11:34:39;;;;;;;0.10;0.10;;;;;;;;;;5023569;28;20483;-78
2023/03/15 11:37:10;;;;;;;0.20;0.20;;;;;;;;;;5014042;28;20335;-78
2023/03/15 11:39:44;;;;;;;0.20;0.20;;;;;;;;;;5026608;28;20444;-78
2023/03/15 11:42:13;;;;;;;0.10;0.10;;;;;;;;;;5015581;28;20555;-77
2023/03/15 11:44:45;;;;;;;0.10;0.10;;;;;;;;;;5026873;28;20206;-78
2023/03/15 11:47:13;;;;;;;3.83;2.20;;;;;;;;;;5015590;28;20312;-77
2023/03/15 11:49:43;;;;;;;0.10;0.10;;;;;;;;;;5026709;28;20228;-78
2023/03/15 11:52:11;;;;;;;0.10;0.10;;;;;;;;;;5015557;28;20311;-78
2023/03/15 11:54:37;;;;;;;0.17;0.17;;;;;;;;;;5026437;28;20205;-77
2023/03/15 11:57:05;;;;;;;0.10;0.10;;;;;;;;;;5015281;28;20253;-77
2023/03/15 11:59:32;;;;;;;0.10;0.10;;;;;;;;;;5026236;28;20488;-77
2023/03/15 12:02:00;;;;;;;0.10;0.10;;;;;;;;;;5015275;28;20241;-77
2023/03/15 12:04:28;;;;;;;0.10;0.10;;;;;;;;;;5026029;28;20215;-77
2023/03/15 12:06:56;;;;;;;0.10;0.10;;;;;;;;;;5015123;28;20251;-78
2023/03/15 12:09:40;;;;;;;0.10;0.10;;;;;;;;;;5025820;28;20244;-78
2023/03/15 12:12:31;;;;;;;0.10;0.10;;;;;;;;;;4985852;28;20308;-77
2023/03/15 12:15:04;;;;;;;0.10;0.10;;;;;;;;;;5025738;28;20455;-77
2023/03/15 12:17:41;;;;;;;0.10;0.10;;;;;;;;;;5015092;28;20480;-77
2023/03/15 12:20:09;;;;;;;0.20;0.20;;;;;;;;;;5022243;28;20360;-78
2023/03/15 12:22:36;;;;;;;0.10;0.10;;;;;;;;;;5024693;28;20235;-77
2023/03/15 12:25:07;;;;;;;0.10;0.10;;;;;;;;;;5025696;28;20217;-76
2023/03/15 12:27:35;;;;;;;0.37;0.37;;;;;;;;;;4998392;28;20233;-77
2023/03/15 12:30:02;;;;;;;0.17;0.17;;;;;;;;;;5025474;28;20242;-77
2023/03/15 12:32:30;;;;;;;0.10;0.10;;;;;;;;;;5014786;28;20262;-77
2023/03/15 12:34:57;;;;;;;0.10;0.10;;;;;;;;;;5025559;28;20455;-78
2023/03/15 12:37:25;;;;;;;0.10;0.10;;;;;;;;;;5014436;28;20271;-78
2023/03/15 12:39:58;;;;;;;0.10;0.10;;;;;;;;;;5025523;28;20276;-78
2023/03/15 12:42:43;;;;;;;0.10;0.10;;;;;;;;;;5014612;28;20421;-78
2023/03/15 12:45:30;;;;;;;0.10;0.10;;;;;;;;;;5015417;28;20205;-78
2023/03/15 12:48:18;;;;;;;0.10;0.10;;;;;;;;;;5024343;28;20245;-78
2023/03/15 12:50:51;;;;;;;0.10;0.10;;;;;;;;;;5015163;28;20247;-78
2023/03/15 12:53:21;;;;;;;0.10;0.10;;;;;;;;;;5024729;28;20214;-77
2023/03/15 12:55:48;;;;;;;0.13;0.13;;;;;;;;;;5014939;28;20242;-78
2023/03/15 12:58:16;;;;;;;0.10;0.10;;;;;;;;;;5024463;28;20225;-78
2023/03/15 13:00:43;;;;;;;0.10;0.10;;;;;;;;;;5014789;28;20242;-78
2023/03/15 13:03:15;;;;;;;0.17;0.17;;;;;;;;;;5024466;28;20205;-77
2023/03/15 13:05:47;;;;;;;0.10;0.10;;;;;;;;;;5014789;28;20248;-77
2023/03/15 13:08:19;;;;;;;0.10;0.10;;;;;;;;;;5024006;28;20269;-77
2023/03/15 13:11:10;;;;;;;0.10;0.10;;;;;;;;;;5014861;28;20438;-77
2023/03/15 13:13:48;;;;;;;0.10;0.10;;;;;;;;;;5025131;28;20202;-77
2023/03/15 13:16:20;;;;;;;0.10;0.10;;;;;;;;;;5014931;28;20499;-76
2023/03/15 13:18:51;;;;;;;0.10;0.10;;;;;;;;;;5025102;28;20562;-77
2023/03/15 13:21:19;;;;;;;0.10;0.10;;;;;;;;;;5014583;28;20493;-76
2023/03/15 13:23:50;;;;;;;0.10;0.10;;;;;;;;;;5024652;28;20251;-76
2023/03/15 13:26:23;;;;;;;0.10;0.10;;;;;;;;;;5014320;28;20261;-76
2023/03/15 13:28:52;;;;;;;0.10;0.10;;;;;;;;;;5024347;28;20224;-77
2023/03/15 13:31:22;;;;;;;0.10;0.10;;;;;;;;;;5014157;28;20268;-76
2023/03/15 13:33:49;;;;;;;0.10;0.10;;;;;;;;;;5024097;28;20206;-76
2023/03/15 13:36:18;;;;;;;0.10;0.10;;;;;;;;;;5014011;28;20248;-76
2023/03/15 13:38:45;;;;;;;0.10;0.10;;;;;;;;;;5024196;28;20206;-76
2023/03/15 13:41:19;;;;;;;0.10;0.10;;;;;;;;;;5013974;28;20273;-76
2023/03/15 13:43:47;;;;;;;0.10;0.10;;;;;;;;;;5024087;28;20204;-76
2023/03/15 13:46:15;;;;;;;0.10;0.10;;;;;;;;;;5013898;28;20237;-77
2023/03/15 13:48:43;;;;;;;0.10;0.10;;;;;;;;;;5023780;28;20197;-76
2023/03/15 13:51:12;;;;;;;0.10;0.10;;;;;;;;;;5013980;28;20444;-76
2023/03/15 13:53:39;;;;;;;0.10;0.10;;;;;;;;;;5023947;28;20197;-76
2023/03/15 13:56:07;;;;;;;0.10;0.10;;;;;;;;;;5013818;28;20243;-76
2023/03/15 13:58:36;;;;;;;0.10;0.10;;;;;;;;;;5023568;28;20451;-76
2023/03/15 14:01:07;;;;;;;0.10;0.10;;;;;;;;;;5013891;28;20615;-75
2023/03/15 14:03:33;;;;;;;0.10;0.10;;;;;;;;;;5023943;28;20504;-76
2023/03/15 14:06:00;;;;;;;0.20;0.20;;;;;;;;;;5013918;28;20279;-77
2023/03/15 14:08:28;;;;;;;0.10;0.10;;;;;;;;;;5024035;28;20374;-76
2023/03/15 14:10:59;;;;;;;0.13;0.13;;;;;;;;;;5013760;28;20265;-76
2023/03/15 14:13:27;;;;;;;0.10;0.10;;;;;;;;;;5023977;28;20217;-76
2023/03/15 14:15:58;;;;;;;0.10;0.10;;;;;;;;;;5013786;28;20259;-76
2023/03/15 14:18:25;;;;;;;0.10;0.10;;;;;;;;;;5023729;28;20213;-76
2023/03/15 14:20:54;;;;;;;0.10;0.10;;;;;;;;;;5013792;28;20244;-76
2023/03/15 14:23:22;;;;;;;0.10;0.10;;;;;;;;;;5023901;28;20205;-76
2023/03/15 14:25:50;;;;;;;0.10;0.10;;;;;;;;;;5013654;28;20241;-76
2023/03/15 14:28:17;;;;;;;0.10;0.10;;;;;;;;;;5023357;28;20252;-76
2023/03/15 14:30:50;;;;;;;0.20;0.20;;;;;;;;;;5013514;28;20552;-77
2023/03/15 14:33:24;;;;;;;0.10;0.10;;;;;;;;;;5023628;28;20279;-76
2023/03/15 14:35:53;;;;;;;0.10;0.10;;;;;;;;;;5013658;28;20255;-77
2023/03/15 14:38:21;;;;;;;0.10;0.10;;;;;;;;;;5023224;28;20213;-76
2023/03/15 14:40:48;;;;;;;0.10;0.10;;;;;;;;;;5013488;28;20254;-77
2023/03/15 14:43:14;;;;;;;0.10;0.10;;;;;;;;;;5023218;28;20215;-77
2023/03/15 14:45:42;;;;;;;0.20;0.20;;;;;;;;;;5013341;28;20243;-76
2023/03/15 14:48:11;;;;;;;0.10;0.10;;;;;;;;;;5023167;28;20234;-77